createdAt,value
2022-12-11T00:01:22.042Z,11.30
2022-12-11T00:04:25.207Z,12.33
2022-12-11T00:07:27.843Z,12.55
2022-12-11T00:10:37.548Z,11.13
2022-12-11T00:13:41.081Z,10.47
2022-12-11T00:16:44.314Z,10.98
2022-12-11T00:19:47.428Z,10.07
2022-12-11T00:22:50.035Z,12.07
2022-12-11T00:25:54.446Z,11.90
2022-12-11T00:28:58.256Z,10.67
2022-12-11T00:32:01.152Z,10.93
2022-12-11T00:35:03.951Z,10.77
2022-12-11T00:38:06.563Z,10.80
2022-12-11T00:41:10.766Z,9.33
2022-12-11T00:44:13.448Z,10.30
2022-12-11T00:47:16.018Z,10.40
2022-12-11T00:50:18.888Z,10.97
2022-12-11T00:53:21.522Z,10.53
2022-12-11T00:56:25.641Z,12.13
2022-12-11T00:59:29.362Z,10.83
2022-12-11T01:02:32.058Z,16.10
2022-12-11T01:05:35.240Z,15.03
2022-12-11T01:08:38.831Z,12.15
2022-12-11T01:14:46.198Z,11.20
2022-12-11T01:17:48.846Z,14.13
2022-12-11T01:20:51.535Z,11.97
2022-12-11T01:23:54.289Z,12.37
2022-12-11T01:26:58.335Z,12.47
2022-12-11T01:30:01.018Z,11.90
2022-12-11T01:33:03.853Z,12.73
2022-12-11T01:36:09.407Z,12.03
2022-12-11T01:39:12.171Z,13.43
2022-12-11T01:42:19.051Z,12.57
2022-12-11T01:45:28.788Z,12.00
2022-12-11T01:48:32.934Z,12.23
2022-12-11T01:51:41.752Z,11.57
2022-12-11T01:54:44.725Z,12.73
2022-12-11T01:57:50.056Z,12.48
2022-12-11T02:00:52.886Z,12.00
2022-12-11T02:03:57.016Z,12.57
2022-12-11T02:06:59.760Z,14.00
2022-12-11T02:10:02.888Z,13.23
2022-12-11T02:13:12.657Z,12.50
2022-12-11T02:16:19.070Z,13.70
2022-12-11T02:19:36.317Z,12.83
2022-12-11T02:22:55.731Z,12.07
2022-12-11T02:26:06.200Z,11.40
2022-12-11T02:29:13.234Z,10.73
2022-12-11T02:32:18.241Z,9.53
2022-12-11T02:35:23.480Z,9.10
2022-12-11T02:38:29.331Z,8.10
2022-12-11T02:41:33.997Z,9.03
2022-12-11T02:44:39.504Z,7.97
2022-12-11T02:47:43.339Z,7.97
2022-12-11T02:50:49.016Z,8.10
2022-12-11T02:53:55.861Z,6.00
2022-12-11T02:57:03.042Z,5.87
2022-12-11T03:00:10.224Z,6.07
2022-12-11T03:03:13.340Z,6.23
2022-12-11T03:06:19.339Z,6.95
2022-12-11T03:09:23.264Z,6.13
2022-12-11T03:15:37.002Z,7.23
2022-12-11T03:18:44.189Z,6.00
2022-12-11T03:21:52.579Z,6.23
2022-12-11T03:25:00.055Z,7.13
2022-12-11T03:28:08.828Z,6.67
2022-12-11T03:31:15.895Z,7.30
2022-12-11T03:34:23.868Z,7.30
2022-12-11T03:37:27.690Z,7.23
2022-12-11T03:43:33.917Z,7.93
2022-12-11T03:46:40.561Z,7.30
2022-12-11T03:49:44.823Z,6.73
2022-12-11T03:52:48.016Z,7.93
2022-12-11T03:55:51.272Z,7.03
2022-12-11T03:58:54.239Z,6.57
2022-12-11T04:01:58.830Z,7.35
2022-12-11T04:05:02.009Z,7.53
2022-12-11T04:08:05.150Z,8.32
2022-12-11T04:11:25.872Z,9.00
2022-12-11T04:14:46.883Z,8.40
2022-12-11T04:18:08.835Z,8.80
2022-12-11T04:21:28.882Z,8.97
2022-12-11T04:24:32.030Z,8.80
2022-12-11T04:27:52.104Z,7.57
2022-12-11T04:30:54.830Z,6.90
2022-12-11T04:33:59.273Z,7.80
2022-12-11T04:37:01.912Z,6.70
2022-12-11T04:40:05.929Z,6.47
2022-12-11T04:43:08.625Z,6.73
2022-12-11T04:46:13.568Z,6.73
2022-12-11T04:49:18.070Z,7.57
2022-12-11T04:52:21.110Z,6.77
2022-12-11T04:55:26.051Z,5.47
2022-12-11T04:58:29.121Z,7.10
2022-12-11T05:01:31.865Z,6.40
2022-12-11T05:04:36.527Z,6.00
2022-12-11T05:07:39.466Z,5.87
2022-12-11T05:10:45.808Z,6.63
2022-12-11T05:13:53.200Z,7.27
2022-12-11T05:16:55.874Z,6.38
2022-12-11T05:19:59.908Z,6.73
2022-12-11T05:23:02.667Z,5.73
2022-12-11T05:26:06.959Z,6.27
2022-12-11T05:29:09.661Z,7.20
2022-12-11T05:32:12.434Z,5.57
2022-12-11T05:35:16.359Z,6.90
2022-12-11T05:41:25.334Z,6.47
2022-12-11T05:44:28.216Z,6.97
2022-12-11T05:47:31.957Z,6.43
2022-12-11T05:50:36.008Z,6.50
2022-12-11T05:53:40.566Z,7.20
2022-12-11T05:56:43.401Z,7.13
2022-12-11T05:59:46.557Z,7.60
2022-12-11T06:02:49.213Z,7.43
2022-12-11T06:05:53.293Z,7.23
2022-12-11T06:08:57.734Z,8.10
2022-12-11T06:12:00.406Z,7.37
2022-12-11T06:15:04.612Z,7.57
2022-12-11T06:18:07.242Z,7.87
2022-12-11T06:21:15.823Z,7.83
2022-12-11T06:24:18.461Z,8.13
2022-12-11T06:27:21.079Z,8.13
2022-12-11T06:30:37.631Z,9.27
2022-12-11T06:33:42.415Z,7.27
2022-12-11T06:36:46.444Z,8.10
2022-12-11T06:39:49.181Z,9.00
2022-12-11T06:42:51.773Z,8.77
2022-12-11T06:45:59.178Z,9.07
2022-12-11T06:49:04.892Z,8.43
2022-12-11T06:52:13.662Z,8.47
2022-12-11T06:55:19.463Z,8.73
2022-12-11T06:58:22.448Z,8.77
2022-12-11T07:01:27.242Z,8.05
2022-12-11T07:04:31.676Z,8.73
2022-12-11T07:07:36.597Z,9.93
2022-12-11T07:10:39.327Z,8.93
2022-12-11T07:13:43.067Z,9.67
2022-12-11T07:16:45.739Z,9.52
2022-12-11T07:19:48.392Z,9.57
2022-12-11T07:22:52.568Z,9.43
2022-12-11T07:25:55.377Z,9.80
2022-12-11T07:28:58.667Z,9.57
2022-12-11T07:32:01.408Z,9.10
2022-12-11T07:35:04.509Z,8.80
2022-12-11T07:38:09.423Z,9.30
2022-12-11T07:41:14.579Z,9.93
2022-12-11T07:44:17.836Z,9.13
2022-12-11T07:47:20.379Z,9.77
2022-12-11T07:50:22.971Z,9.07
2022-12-11T07:53:27.006Z,9.67
2022-12-11T07:56:30.382Z,8.70
2022-12-11T07:59:33.207Z,9.38
2022-12-11T08:02:37.531Z,15.83
2022-12-11T08:05:40.502Z,13.23
2022-12-11T08:08:45.204Z,15.00
2022-12-11T08:11:49.650Z,12.27
2022-12-11T08:14:52.309Z,12.57
2022-12-11T08:17:55.576Z,11.07
2022-12-11T08:20:58.378Z,10.65
2022-12-11T08:24:02.871Z,12.52
2022-12-11T08:27:05.519Z,10.20
2022-12-11T08:30:09.446Z,7.67
2022-12-11T08:36:16.463Z,8.00
2022-12-11T08:39:20.357Z,7.93
2022-12-11T08:45:27.084Z,8.00
2022-12-11T08:51:32.718Z,8.70
2022-12-11T08:54:37.989Z,8.63
2022-12-11T08:57:40.741Z,8.57
2022-12-11T09:00:44.176Z,7.83
2022-12-11T09:03:47.137Z,7.75
2022-12-11T09:06:50.054Z,8.43
2022-12-11T09:09:55.985Z,8.10
2022-12-11T09:12:58.908Z,9.07
2022-12-11T09:16:01.886Z,9.35
2022-12-11T09:19:04.960Z,8.18
2022-12-11T09:22:10.100Z,9.48
2022-12-11T09:25:14.945Z,9.13
2022-12-11T09:28:17.694Z,8.87
2022-12-11T09:31:24.272Z,10.07
2022-12-11T09:34:29.448Z,11.03
2022-12-11T09:37:34.165Z,10.70
2022-12-11T09:40:43.438Z,9.93
2022-12-11T09:43:49.705Z,9.53
2022-12-11T09:46:53.221Z,10.00
2022-12-11T09:50:02.575Z,12.48
2022-12-11T09:53:09.665Z,12.10
2022-12-11T09:56:18.382Z,11.00
2022-12-11T09:59:25.139Z,9.67
2022-12-11T10:02:35.003Z,9.97
2022-12-11T10:05:45.700Z,9.73
2022-12-11T10:08:58.645Z,10.00
2022-12-11T10:12:14.793Z,10.00
2022-12-11T10:15:25.412Z,9.77
2022-12-11T10:18:29.503Z,10.60
2022-12-11T10:21:39.452Z,10.23
2022-12-11T10:28:14.548Z,10.83
2022-12-11T10:31:19.424Z,11.47
2022-12-11T10:34:32.460Z,10.83
2022-12-11T10:37:35.229Z,9.70
2022-12-11T10:40:39.251Z,10.97
2022-12-11T10:43:46.047Z,9.80
2022-12-11T10:47:02.370Z,10.03
2022-12-11T10:50:05.825Z,8.97
2022-12-11T10:53:21.458Z,10.13
2022-12-11T10:56:29.076Z,9.73
2022-12-11T10:59:35.853Z,10.07
2022-12-11T11:02:40.438Z,11.20
2022-12-11T11:05:49.380Z,10.20
2022-12-11T11:08:55.111Z,10.30
2022-12-11T11:12:00.825Z,10.87
2022-12-11T11:15:12.318Z,10.30
2022-12-11T11:18:23.037Z,10.37
2022-12-11T11:21:28.495Z,9.53
2022-12-11T11:24:35.474Z,10.43
2022-12-11T11:27:49.344Z,11.60
2022-12-11T11:31:02.576Z,9.98
2022-12-11T11:34:08.334Z,10.05
2022-12-11T11:37:24.878Z,10.17
2022-12-11T11:40:30.512Z,10.20
2022-12-11T11:43:39.159Z,10.03
2022-12-11T11:46:46.964Z,9.60
2022-12-11T11:49:56.863Z,9.47
2022-12-11T11:53:05.563Z,9.93
2022-12-11T11:56:23.594Z,10.10
2022-12-11T11:59:31.224Z,9.53
2022-12-11T12:02:35.582Z,9.43
2022-12-11T12:05:44.485Z,9.90
2022-12-11T12:08:54.945Z,9.73
2022-12-11T12:12:11.029Z,9.87
2022-12-11T12:15:21.986Z,10.33
2022-12-11T12:18:33.167Z,9.70
2022-12-11T12:21:39.340Z,9.23
2022-12-11T12:24:48.436Z,9.87
2022-12-11T12:27:58.116Z,8.87
2022-12-11T12:31:13.160Z,10.13
2022-12-11T12:34:27.502Z,10.23
2022-12-11T12:37:47.541Z,10.60
2022-12-11T12:40:57.952Z,9.97
2022-12-11T12:44:08.592Z,11.47
2022-12-11T12:47:14.307Z,10.97
2022-12-11T12:50:20.850Z,9.90
2022-12-11T12:53:26.756Z,10.73
2022-12-11T12:56:33.099Z,10.63
2022-12-11T12:59:35.830Z,9.93
2022-12-11T13:02:39.403Z,9.83
2022-12-11T13:05:45.334Z,9.85
2022-12-11T13:08:49.891Z,9.13
2022-12-11T13:11:57.867Z,10.53
2022-12-11T13:15:01.304Z,8.73
2022-12-11T13:18:06.456Z,8.90
2022-12-11T13:21:29.656Z,9.70
2022-12-11T13:24:34.180Z,9.40
2022-12-11T13:27:42.768Z,10.63
2022-12-11T13:30:45.916Z,10.80
2022-12-11T13:33:50.511Z,9.75
2022-12-11T13:36:55.758Z,10.80
2022-12-11T13:39:59.226Z,9.73
2022-12-11T13:43:04.013Z,11.10
2022-12-11T13:46:09.176Z,11.10
2022-12-11T13:49:22.266Z,11.07
2022-12-11T13:52:27.785Z,12.40
2022-12-11T13:55:34.081Z,13.33
2022-12-11T13:58:39.820Z,11.20
2022-12-11T14:01:42.589Z,12.87
2022-12-11T14:04:45.754Z,12.30
2022-12-11T14:07:51.153Z,12.93
2022-12-11T14:10:55.679Z,12.47
2022-12-11T14:14:00.154Z,12.70
2022-12-11T14:17:03.860Z,12.30
2022-12-11T14:20:08.472Z,10.98
2022-12-11T14:23:19.316Z,11.70
2022-12-11T14:26:23.978Z,10.73
2022-12-11T14:29:33.424Z,8.67
2022-12-11T14:32:38.189Z,12.20
2022-12-11T14:35:44.000Z,9.33
2022-12-11T14:38:50.708Z,12.43
2022-12-11T14:41:59.427Z,12.73
2022-12-11T14:45:04.894Z,12.23
2022-12-11T14:48:11.503Z,12.13
2022-12-11T14:51:17.079Z,11.67
2022-12-11T14:54:29.810Z,12.03
2022-12-11T14:57:34.459Z,11.43
2022-12-11T15:00:38.319Z,12.77
2022-12-11T15:06:47.631Z,12.77
2022-12-11T15:09:52.794Z,12.93
2022-12-11T15:12:55.988Z,11.60
2022-12-11T15:15:59.823Z,12.73
2022-12-11T15:22:07.110Z,11.30
2022-12-11T15:25:20.688Z,12.23
2022-12-11T15:28:27.872Z,11.93
2022-12-11T15:31:33.312Z,11.80
2022-12-11T15:34:43.081Z,11.67
2022-12-11T15:37:53.587Z,11.80
2022-12-11T15:40:58.621Z,10.70
2022-12-11T15:44:02.855Z,12.33
2022-12-11T15:47:13.353Z,12.03
2022-12-11T15:50:18.454Z,13.17
2022-12-11T15:53:21.120Z,12.97
2022-12-11T15:56:27.190Z,12.67
2022-12-11T15:59:30.119Z,13.00
2022-12-11T16:02:35.076Z,13.80
2022-12-11T16:05:37.917Z,14.33
2022-12-11T16:08:40.815Z,13.43
2022-12-11T16:11:45.066Z,14.18
2022-12-11T16:14:48.672Z,14.93
2022-12-11T16:17:51.763Z,14.55
2022-12-11T16:20:54.692Z,14.82
2022-12-11T16:23:58.757Z,14.77
2022-12-11T16:27:03.822Z,14.60
2022-12-11T16:30:07.761Z,14.53
2022-12-11T16:36:18.262Z,15.20
2022-12-11T16:39:21.654Z,14.33
2022-12-11T16:42:26.665Z,15.95
2022-12-11T16:45:29.939Z,13.87
2022-12-11T16:48:32.782Z,15.60
2022-12-11T16:51:36.033Z,15.07
2022-12-11T16:54:38.803Z,16.90
2022-12-11T16:57:42.892Z,14.60
2022-12-11T17:00:45.745Z,14.77
2022-12-11T17:03:48.732Z,16.90
2022-12-11T17:06:51.477Z,16.50
2022-12-11T17:09:54.246Z,18.10
2022-12-11T17:12:58.409Z,16.63
2022-12-11T17:16:01.705Z,16.50
2022-12-11T17:19:07.332Z,15.15
2022-12-11T17:22:10.739Z,16.03
2022-12-11T17:25:15.224Z,15.10
2022-12-11T17:28:20.325Z,14.73
2022-12-11T17:31:23.569Z,15.27
2022-12-11T17:34:26.214Z,15.30
2022-12-11T17:37:29.388Z,15.57
2022-12-11T17:40:32.281Z,15.93
2022-12-11T17:43:36.543Z,17.48
2022-12-11T17:46:39.869Z,16.47
2022-12-11T17:49:42.897Z,16.50
2022-12-11T17:52:46.038Z,16.58
2022-12-11T17:55:49.984Z,15.77
2022-12-11T17:58:54.283Z,14.73
2022-12-11T18:01:57.715Z,15.70
2022-12-11T18:05:01.088Z,14.90
2022-12-11T18:08:03.807Z,15.95
2022-12-11T18:11:07.903Z,13.48
2022-12-11T18:14:16.863Z,14.30
2022-12-11T18:17:20.839Z,15.70
2022-12-11T18:20:23.830Z,16.10
2022-12-11T18:23:27.015Z,15.40
2022-12-11T18:26:29.958Z,13.52
2022-12-11T18:29:34.009Z,14.93
2022-12-11T18:32:36.786Z,15.17
2022-12-11T18:35:39.689Z,16.03
2022-12-11T18:38:43.309Z,14.75
2022-12-11T18:41:58.374Z,14.85
2022-12-11T18:45:11.601Z,15.23
2022-12-11T18:48:15.253Z,15.40
2022-12-11T18:51:22.749Z,15.90
2022-12-11T18:54:25.532Z,15.77
2022-12-11T18:57:29.306Z,16.93
2022-12-11T19:00:34.341Z,16.58
2022-12-11T19:03:37.475Z,19.00
2022-12-11T19:06:40.122Z,18.83
2022-12-11T19:09:47.831Z,17.23
2022-12-11T19:12:50.976Z,16.27
2022-12-11T19:15:55.205Z,16.83
2022-12-11T19:18:59.167Z,17.63
2022-12-11T19:25:06.459Z,16.43
2022-12-11T19:28:09.136Z,15.67
2022-12-11T19:31:15.975Z,15.50
2022-12-11T19:34:19.480Z,16.23
2022-12-11T19:37:22.596Z,18.77
2022-12-11T19:40:26.667Z,23.85
2022-12-11T19:43:29.467Z,24.70
2022-12-11T19:46:33.650Z,19.83
2022-12-11T19:49:36.497Z,20.00
2022-12-11T19:52:45.838Z,18.03
2022-12-11T19:55:50.972Z,18.03
2022-12-11T19:58:53.696Z,18.37
2022-12-11T20:01:57.824Z,18.40
2022-12-11T20:05:00.526Z,16.83
2022-12-11T20:08:35.230Z,18.67
2022-12-11T20:11:27.741Z,19.03
2022-12-11T20:14:31.158Z,17.93
2022-12-11T20:17:36.841Z,18.08
2022-12-11T20:20:39.915Z,17.33
2022-12-11T20:23:43.110Z,16.90
2022-12-11T20:26:47.088Z,17.40
2022-12-11T20:29:50.248Z,16.50
2022-12-11T20:32:55.328Z,18.10
2022-12-11T20:35:58.108Z,18.50
2022-12-11T20:39:01.320Z,19.70
2022-12-11T20:42:05.002Z,18.95
2022-12-11T20:45:09.656Z,19.13
2022-12-11T20:48:15.166Z,18.87
2022-12-11T20:51:25.777Z,18.23
2022-12-11T20:54:29.624Z,17.23
2022-12-11T20:57:32.568Z,17.15
2022-12-11T21:00:37.704Z,16.95
2022-12-11T21:03:42.728Z,18.33
2022-12-11T21:06:45.675Z,18.13
2022-12-11T21:09:49.069Z,16.75
2022-12-11T21:12:51.669Z,17.00
2022-12-11T21:15:56.725Z,14.80
2022-12-11T21:19:02.022Z,16.73
2022-12-11T21:22:05.547Z,16.53
2022-12-11T21:25:08.866Z,14.60
2022-12-11T21:28:12.002Z,15.07
2022-12-11T21:31:16.583Z,16.35
2022-12-11T21:34:25.309Z,13.80
2022-12-11T21:37:30.005Z,16.13
2022-12-11T21:40:33.985Z,15.10
2022-12-11T21:43:40.026Z,15.33
2022-12-11T21:46:51.204Z,15.63
2022-12-11T21:49:55.381Z,15.88
2022-12-11T21:52:59.622Z,15.90
2022-12-11T21:56:06.561Z,16.03
2022-12-11T21:59:09.336Z,13.90
2022-12-11T22:02:12.880Z,14.17
2022-12-11T22:05:17.401Z,12.43
2022-12-11T22:08:20.118Z,12.13
2022-12-11T22:11:26.206Z,13.30
2022-12-11T22:14:30.772Z,14.33
2022-12-11T22:17:34.476Z,14.10
2022-12-11T22:23:42.411Z,12.75
2022-12-11T22:26:49.766Z,13.80
2022-12-11T22:29:52.769Z,14.07
2022-12-11T22:32:55.511Z,14.85
2022-12-11T22:36:00.893Z,13.70
2022-12-11T22:39:05.426Z,15.83
2022-12-11T22:42:08.211Z,12.10
2022-12-11T22:45:12.519Z,15.40
2022-12-11T22:48:15.626Z,13.57
2022-12-11T22:51:20.578Z,13.77
2022-12-11T22:54:23.108Z,13.60
2022-12-11T22:57:25.778Z,12.80
2022-12-11T23:00:28.421Z,12.83
2022-12-11T23:03:31.177Z,10.60
2022-12-11T23:06:35.642Z,11.77
2022-12-11T23:09:38.455Z,11.07
2022-12-11T23:12:41.148Z,12.43
2022-12-11T23:15:44.243Z,14.00
2022-12-11T23:18:47.886Z,17.42
2022-12-11T23:21:52.020Z,11.60
2022-12-11T23:24:54.608Z,13.43
2022-12-11T23:27:57.447Z,14.23
2022-12-11T23:31:00.482Z,14.40
2022-12-11T23:34:03.717Z,13.32
2022-12-11T23:37:07.767Z,12.35
2022-12-11T23:40:11.711Z,13.87
2022-12-11T23:46:19.122Z,10.03
2022-12-11T23:49:22.015Z,13.07
2022-12-11T23:52:26.636Z,12.63
2022-12-11T23:55:30.881Z,12.80
2022-12-11T23:58:37.489Z,11.93
